sensor_id;sensor_type;location;lat;lon;timestamp;pressure;altitude;pressure_sealevel;temperature;humidity
60611;BME280;46439;51.164;13.572;2023-03-13T00:01:52;99325.80;;;8.79;84.23
60611;BME280;46439;51.164;13.572;2023-03-13T00:04:20;99324.81;;;8.80;84.16
60611;BME280;46439;51.164;13.572;2023-03-13T00:06:49;99323.61;;;8.79;84.06
60611;BME280;46439;51.164;13.572;2023-03-13T00:09:17;99324.25;;;8.80;83.96
60611;BME280;46439;51.164;13.572;2023-03-13T00:11:46;99326.46;;;8.82;84.21
60611;BME280;46439;51.164;13.572;2023-03-13T00:14:15;99327.86;;;8.84;84.19
60611;BME280;46439;51.164;13.572;2023-03-13T00:16:43;99323.79;;;8.85;84.19
60611;BME280;46439;51.164;13.572;2023-03-13T00:19:31;99323.48;;;8.87;84.06
60611;BME280;46439;51.164;13.572;2023-03-13T00:22:09;99324.08;;;8.88;84.31
60611;BME280;46439;51.164;13.572;2023-03-13T00:24:51;99323.21;;;8.92;84.36
60611;BME280;46439;51.164;13.572;2023-03-13T00:27:23;99322.32;;;8.95;84.34
60611;BME280;46439;51.164;13.572;2023-03-13T00:29:51;99322.27;;;8.95;84.36
60611;BME280;46439;51.164;13.572;2023-03-13T00:32:43;99324.52;;;8.96;84.56
60611;BME280;46439;51.164;13.572;2023-03-13T00:35:14;99319.48;;;8.96;84.34
60611;BME280;46439;51.164;13.572;2023-03-13T00:37:48;99318.23;;;8.97;84.49
60611;BME280;46439;51.164;13.572;2023-03-13T00:40:17;99323.00;;;8.99;84.58
60611;BME280;46439;51.164;13.572;2023-03-13T00:42:47;99323.83;;;9.01;84.55
60611;BME280;46439;51.164;13.572;2023-03-13T00:45:16;99323.43;;;9.03;84.36
60611;BME280;46439;51.164;13.572;2023-03-13T00:47:45;99317.21;;;9.06;84.39
60611;BME280;46439;51.164;13.572;2023-03-13T00:50:13;99314.10;;;9.11;84.71
60611;BME280;46439;51.164;13.572;2023-03-13T00:52:42;99310.76;;;9.12;84.65
60611;BME280;46439;51.164;13.572;2023-03-13T00:55:12;99311.55;;;9.15;84.61
60611;BME280;46439;51.164;13.572;2023-03-13T00:57:40;99311.34;;;9.15;84.47
60611;BME280;46439;51.164;13.572;2023-03-13T01:00:11;99309.48;;;9.15;84.53
60611;BME280;46439;51.164;13.572;2023-03-13T01:02:43;99304.32;;;9.16;84.70
60611;BME280;46439;51.164;13.572;2023-03-13T01:05:12;99308.64;;;9.17;84.51
60611;BME280;46439;51.164;13.572;2023-03-13T01:07:40;99300.34;;;9.19;84.66
60611;BME280;46439;51.164;13.572;2023-03-13T01:10:11;99293.81;;;9.21;84.58
60611;BME280;46439;51.164;13.572;2023-03-13T01:12:39;99296.53;;;9.22;84.60
60611;BME280;46439;51.164;13.572;2023-03-13T01:15:09;99295.23;;;9.24;84.76
60611;BME280;46439;51.164;13.572;2023-03-13T01:17:38;99290.35;;;9.25;84.58
60611;BME280;46439;51.164;13.572;2023-03-13T01:20:09;99290.58;;;9.23;84.63
60611;BME280;46439;51.164;13.572;2023-03-13T01:22:38;99297.27;;;9.21;84.49
60611;BME280;46439;51.164;13.572;2023-03-13T01:25:09;99294.98;;;9.21;84.44
60611;BME280;46439;51.164;13.572;2023-03-13T01:27:38;99284.33;;;9.20;84.50
60611;BME280;46439;51.164;13.572;2023-03-13T01:30:10;99280.44;;;9.21;84.45
60611;BME280;46439;51.164;13.572;2023-03-13T01:32:38;99282.91;;;9.22;84.68
60611;BME280;46439;51.164;13.572;2023-03-13T01:35:08;99280.08;;;9.22;84.64
60611;BME280;46439;51.164;13.572;2023-03-13T01:37:36;99281.04;;;9.23;84.38
60611;BME280;46439;51.164;13.572;2023-03-13T01:40:06;99278.86;;;9.25;84.64
60611;BME280;46439;51.164;13.572;2023-03-13T01:42:49;99279.00;;;9.25;84.55
60611;BME280;46439;51.164;13.572;2023-03-13T01:48:23;99269.30;;;9.25;84.51
60611;BME280;46439;51.164;13.572;2023-03-13T01:50:55;99271.11;;;9.23;84.56
60611;BME280;46439;51.164;13.572;2023-03-13T01:53:24;99268.98;;;9.22;84.47
60611;BME280;46439;51.164;13.572;2023-03-13T01:55:54;99267.58;;;9.23;84.53
60611;BME280;46439;51.164;13.572;2023-03-13T01:58:25;99259.57;;;9.22;84.48
60611;BME280;46439;51.164;13.572;2023-03-13T02:00:55;99257.92;;;9.23;84.36
60611;BME280;46439;51.164;13.572;2023-03-13T02:03:23;99254.16;;;9.24;84.59
60611;BME280;46439;51.164;13.572;2023-03-13T02:05:54;99254.71;;;9.24;84.36
60611;BME280;46439;51.164;13.572;2023-03-13T02:08:24;99250.66;;;9.23;84.25
60611;BME280;46439;51.164;13.572;2023-03-13T02:11:05;99246.67;;;9.21;84.32
60611;BME280;46439;51.164;13.572;2023-03-13T02:13:37;99245.02;;;9.20;84.38
60611;BME280;46439;51.164;13.572;2023-03-13T02:16:07;99239.09;;;9.18;84.38
60611;BME280;46439;51.164;13.572;2023-03-13T02:18:38;99229.49;;;9.19;84.26
60611;BME280;46439;51.164;13.572;2023-03-13T02:21:13;99227.48;;;9.19;84.43
60611;BME280;46439;51.164;13.572;2023-03-13T02:23:49;99223.20;;;9.16;84.24
60611;BME280;46439;51.164;13.572;2023-03-13T02:26:20;99222.95;;;9.12;84.14
60611;BME280;46439;51.164;13.572;2023-03-13T02:28:49;99222.15;;;9.09;84.19
60611;BME280;46439;51.164;13.572;2023-03-13T02:31:18;99218.96;;;9.05;84.05
60611;BME280;46439;51.164;13.572;2023-03-13T02:33:46;99225.16;;;9.01;83.90
60611;BME280;46439;51.164;13.572;2023-03-13T02:36:16;99225.52;;;9.01;83.88
60611;BME280;46439;51.164;13.572;2023-03-13T02:38:52;99219.41;;;9.01;84.18
60611;BME280;46439;51.164;13.572;2023-03-13T02:41:23;99218.98;;;9.00;84.00
60611;BME280;46439;51.164;13.572;2023-03-13T02:43:52;99217.17;;;9.01;84.05
60611;BME280;46439;51.164;13.572;2023-03-13T02:46:21;99215.33;;;9.02;84.07
60611;BME280;46439;51.164;13.572;2023-03-13T02:48:52;99218.38;;;9.04;84.29
60611;BME280;46439;51.164;13.572;2023-03-13T02:51:25;99218.77;;;9.03;83.95
60611;BME280;46439;51.164;13.572;2023-03-13T02:53:57;99218.30;;;9.05;84.28
60611;BME280;46439;51.164;13.572;2023-03-13T02:56:28;99217.69;;;9.07;84.26
60611;BME280;46439;51.164;13.572;2023-03-13T02:58:58;99220.88;;;9.07;84.18
60611;BME280;46439;51.164;13.572;2023-03-13T03:01:27;99219.27;;;9.09;84.21
60611;BME280;46439;51.164;13.572;2023-03-13T03:03:56;99216.29;;;9.10;84.33
60611;BME280;46439;51.164;13.572;2023-03-13T03:06:24;99217.45;;;9.10;84.43
60611;BME280;46439;51.164;13.572;2023-03-13T03:08:53;99220.19;;;9.11;84.35
60611;BME280;46439;51.164;13.572;2023-03-13T03:11:21;99213.02;;;9.14;84.42
60611;BME280;46439;51.164;13.572;2023-03-13T03:13:49;99210.85;;;9.16;84.47
60611;BME280;46439;51.164;13.572;2023-03-13T03:16:18;99205.92;;;9.16;84.41
60611;BME280;46439;51.164;13.572;2023-03-13T03:18:47;99200.52;;;9.15;84.25
60611;BME280;46439;51.164;13.572;2023-03-13T03:21:15;99197.02;;;9.13;84.23
60611;BME280;46439;51.164;13.572;2023-03-13T03:23:44;99192.05;;;9.11;84.09
60611;BME280;46439;51.164;13.572;2023-03-13T03:26:12;99186.55;;;9.11;84.17
60611;BME280;46439;51.164;13.572;2023-03-13T03:28:41;99180.05;;;9.09;84.34
60611;BME280;46439;51.164;13.572;2023-03-13T03:31:11;99175.56;;;9.09;84.30
60611;BME280;46439;51.164;13.572;2023-03-13T03:33:41;99174.95;;;9.10;84.30
60611;BME280;46439;51.164;13.572;2023-03-13T03:36:12;99172.75;;;9.10;84.23
60611;BME280;46439;51.164;13.572;2023-03-13T03:38:41;99169.20;;;9.09;84.06
60611;BME280;46439;51.164;13.572;2023-03-13T03:41:11;99165.89;;;9.08;83.94
60611;BME280;46439;51.164;13.572;2023-03-13T03:43:41;99163.40;;;9.08;84.27
60611;BME280;46439;51.164;13.572;2023-03-13T03:46:10;99156.39;;;9.08;84.08
60611;BME280;46439;51.164;13.572;2023-03-13T03:48:38;99157.01;;;9.10;84.19
60611;BME280;46439;51.164;13.572;2023-03-13T03:51:07;99151.70;;;9.12;84.00
60611;BME280;46439;51.164;13.572;2023-03-13T03:53:36;99147.67;;;9.16;84.23
60611;BME280;46439;51.164;13.572;2023-03-13T03:56:05;99139.91;;;9.17;84.44
60611;BME280;46439;51.164;13.572;2023-03-13T03:58:34;99139.31;;;9.19;84.45
60611;BME280;46439;51.164;13.572;2023-03-13T04:01:03;99133.92;;;9.23;84.46
60611;BME280;46439;51.164;13.572;2023-03-13T04:03:32;99131.95;;;9.25;84.58
60611;BME280;46439;51.164;13.572;2023-03-13T04:06:01;99128.16;;;9.27;84.46
60611;BME280;46439;51.164;13.572;2023-03-13T04:08:29;99121.89;;;9.30;84.69
60611;BME280;46439;51.164;13.572;2023-03-13T04:10:58;99116.10;;;9.30;84.46
60611;BME280;46439;51.164;13.572;2023-03-13T04:13:27;99111.98;;;9.31;84.50
60611;BME280;46439;51.164;13.572;2023-03-13T04:15:55;99114.77;;;9.30;84.51
60611;BME280;46439;51.164;13.572;2023-03-13T04:18:24;99114.59;;;9.28;84.56
60611;BME280;46439;51.164;13.572;2023-03-13T04:21:01;99109.38;;;9.26;84.25
60611;BME280;46439;51.164;13.572;2023-03-13T04:23:30;99100.69;;;9.26;84.43
60611;BME280;46439;51.164;13.572;2023-03-13T04:25:58;99091.08;;;9.23;84.13
60611;BME280;46439;51.164;13.572;2023-03-13T04:28:26;99088.15;;;9.24;84.49
60611;BME280;46439;51.164;13.572;2023-03-13T04:30:55;99087.71;;;9.21;84.25
60611;BME280;46439;51.164;13.572;2023-03-13T04:33:25;99084.37;;;9.18;84.21
60611;BME280;46439;51.164;13.572;2023-03-13T04:35:54;99075.61;;;9.16;84.31
60611;BME280;46439;51.164;13.572;2023-03-13T04:38:22;99072.28;;;9.16;84.16
60611;BME280;46439;51.164;13.572;2023-03-13T04:40:51;99062.00;;;9.12;84.18
60611;BME280;46439;51.164;13.572;2023-03-13T04:43:19;99058.73;;;9.12;84.02
60611;BME280;46439;51.164;13.572;2023-03-13T04:45:50;99053.97;;;9.11;84.29
60611;BME280;46439;51.164;13.572;2023-03-13T04:48:18;99051.74;;;9.12;84.20
60611;BME280;46439;51.164;13.572;2023-03-13T04:50:47;99042.52;;;9.14;84.16
60611;BME280;46439;51.164;13.572;2023-03-13T04:53:16;99038.83;;;9.16;84.37
60611;BME280;46439;51.164;13.572;2023-03-13T04:55:45;99037.46;;;9.17;84.46
60611;BME280;46439;51.164;13.572;2023-03-13T04:58:14;99036.14;;;9.16;84.36
60611;BME280;46439;51.164;13.572;2023-03-13T05:00:43;99027.98;;;9.17;84.49
60611;BME280;46439;51.164;13.572;2023-03-13T05:03:11;99020.91;;;9.20;84.49
60611;BME280;46439;51.164;13.572;2023-03-13T05:05:40;99014.89;;;9.22;84.64
60611;BME280;46439;51.164;13.572;2023-03-13T05:08:08;99013.63;;;9.19;84.32
60611;BME280;46439;51.164;13.572;2023-03-13T05:10:38;99008.55;;;9.17;84.26
60611;BME280;46439;51.164;13.572;2023-03-13T05:13:06;99008.36;;;9.16;84.44
60611;BME280;46439;51.164;13.572;2023-03-13T05:15:34;99000.62;;;9.15;84.31
60611;BME280;46439;51.164;13.572;2023-03-13T05:18:03;98993.64;;;9.14;84.46
60611;BME280;46439;51.164;13.572;2023-03-13T05:20:31;98983.54;;;9.15;84.42
60611;BME280;46439;51.164;13.572;2023-03-13T05:23:00;98974.23;;;9.16;84.22
60611;BME280;46439;51.164;13.572;2023-03-13T05:25:28;98973.95;;;9.17;84.35
60611;BME280;46439;51.164;13.572;2023-03-13T05:27:57;98964.75;;;9.20;84.41
60611;BME280;46439;51.164;13.572;2023-03-13T05:30:25;98955.91;;;9.22;84.34
60611;BME280;46439;51.164;13.572;2023-03-13T05:32:54;98956.11;;;9.24;84.69
60611;BME280;46439;51.164;13.572;2023-03-13T05:35:23;98954.90;;;9.29;84.60
60611;BME280;46439;51.164;13.572;2023-03-13T05:37:51;98951.69;;;9.30;84.64
60611;BME280;46439;51.164;13.572;2023-03-13T05:40:20;98954.09;;;9.29;84.47
60611;BME280;46439;51.164;13.572;2023-03-13T05:42:48;98948.70;;;9.29;84.45
60611;BME280;46439;51.164;13.572;2023-03-13T05:45:17;98937.31;;;9.31;84.56
60611;BME280;46439;51.164;13.572;2023-03-13T05:47:46;98930.20;;;9.32;84.67
60611;BME280;46439;51.164;13.572;2023-03-13T05:50:15;98929.83;;;9.32;84.86
60611;BME280;46439;51.164;13.572;2023-03-13T05:52:43;98930.14;;;9.35;84.63
60611;BME280;46439;51.164;13.572;2023-03-13T05:55:12;98926.48;;;9.38;84.74
60611;BME280;46439;51.164;13.572;2023-03-13T05:57:41;98922.20;;;9.41;84.78
60611;BME280;46439;51.164;13.572;2023-03-13T06:00:13;98919.77;;;9.45;84.87
60611;BME280;46439;51.164;13.572;2023-03-13T06:02:42;98922.06;;;9.48;84.91
60611;BME280;46439;51.164;13.572;2023-03-13T06:05:11;98922.23;;;9.49;84.84
60611;BME280;46439;51.164;13.572;2023-03-13T06:07:40;98921.86;;;9.51;84.59
60611;BME280;46439;51.164;13.572;2023-03-13T06:10:10;98921.52;;;9.52;84.87
60611;BME280;46439;51.164;13.572;2023-03-13T06:12:39;98923.23;;;9.54;84.71
60611;BME280;46439;51.164;13.572;2023-03-13T06:15:09;98924.06;;;9.56;84.82
60611;BME280;46439;51.164;13.572;2023-03-13T06:17:38;98920.31;;;9.57;84.84
60611;BME280;46439;51.164;13.572;2023-03-13T06:20:08;98910.04;;;9.59;84.82
60611;BME280;46439;51.164;13.572;2023-03-13T06:22:37;98903.54;;;9.60;84.74
60611;BME280;46439;51.164;13.572;2023-03-13T06:25:07;98892.04;;;9.63;84.92
60611;BME280;46439;51.164;13.572;2023-03-13T06:27:35;98886.30;;;9.68;85.07
60611;BME280;46439;51.164;13.572;2023-03-13T06:30:05;98884.40;;;9.72;85.06
60611;BME280;46439;51.164;13.572;2023-03-13T06:32:34;98874.42;;;9.75;84.98
60611;BME280;46439;51.164;13.572;2023-03-13T06:35:02;98869.37;;;9.76;85.21
60611;BME280;46439;51.164;13.572;2023-03-13T06:37:31;98856.70;;;9.78;85.05
60611;BME280;46439;51.164;13.572;2023-03-13T06:40:01;98855.17;;;9.79;85.00
60611;BME280;46439;51.164;13.572;2023-03-13T06:42:29;98847.92;;;9.81;85.05
60611;BME280;46439;51.164;13.572;2023-03-13T06:44:57;98847.14;;;9.84;84.96
60611;BME280;46439;51.164;13.572;2023-03-13T06:47:26;98843.42;;;9.87;84.96
60611;BME280;46439;51.164;13.572;2023-03-13T06:49:54;98838.95;;;9.89;84.88
60611;BME280;46439;51.164;13.572;2023-03-13T06:52:23;98834.08;;;9.95;85.33
60611;BME280;46439;51.164;13.572;2023-03-13T06:54:51;98829.20;;;9.99;85.34
60611;BME280;46439;51.164;13.572;2023-03-13T06:57:20;98829.59;;;10.06;85.34
60611;BME280;46439;51.164;13.572;2023-03-13T06:59:48;98831.59;;;10.09;85.23
60611;BME280;46439;51.164;13.572;2023-03-13T07:02:17;98829.77;;;10.13;85.21
60611;BME280;46439;51.164;13.572;2023-03-13T07:04:46;98829.20;;;10.19;85.40
60611;BME280;46439;51.164;13.572;2023-03-13T07:07:14;98829.92;;;10.25;85.38
60611;BME280;46439;51.164;13.572;2023-03-13T07:09:43;98828.21;;;10.30;85.34
60611;BME280;46439;51.164;13.572;2023-03-13T07:12:12;98822.84;;;10.38;85.79
60611;BME280;46439;51.164;13.572;2023-03-13T07:14:40;98815.01;;;10.41;85.64
60611;BME280;46439;51.164;13.572;2023-03-13T07:17:09;98810.44;;;10.42;85.39
60611;BME280;46439;51.164;13.572;2023-03-13T07:19:37;98802.66;;;10.42;85.62
60611;BME280;46439;51.164;13.572;2023-03-13T07:22:06;98807.20;;;10.42;85.27
60611;BME280;46439;51.164;13.572;2023-03-13T07:24:34;98803.63;;;10.41;85.39
60611;BME280;46439;51.164;13.572;2023-03-13T07:27:03;98794.16;;;10.41;85.36
60611;BME280;46439;51.164;13.572;2023-03-13T07:29:31;98788.31;;;10.42;85.18
60611;BME280;46439;51.164;13.572;2023-03-13T07:32:00;98782.59;;;10.42;85.27
60611;BME280;46439;51.164;13.572;2023-03-13T07:34:29;98778.94;;;10.36;85.04
60611;BME280;46439;51.164;13.572;2023-03-13T07:36:57;98769.10;;;10.33;84.98
60611;BME280;46439;51.164;13.572;2023-03-13T07:39:26;98766.88;;;10.30;84.87
60611;BME280;46439;51.164;13.572;2023-03-13T07:41:54;98768.77;;;10.25;84.90
60611;BME280;46439;51.164;13.572;2023-03-13T07:44:23;98770.52;;;10.21;84.79
60611;BME280;46439;51.164;13.572;2023-03-13T07:46:52;98756.48;;;10.17;84.80
60611;BME280;46439;51.164;13.572;2023-03-13T07:49:20;98752.90;;;10.16;84.77
60611;BME280;46439;51.164;13.572;2023-03-13T07:51:48;98753.66;;;10.14;84.67
60611;BME280;46439;51.164;13.572;2023-03-13T07:54:18;98755.30;;;10.15;84.71
60611;BME280;46439;51.164;13.572;2023-03-13T07:56:47;98755.17;;;10.16;85.07
60611;BME280;46439;51.164;13.572;2023-03-13T07:59:16;98761.79;;;10.16;84.88
60611;BME280;46439;51.164;13.572;2023-03-13T08:01:44;98770.66;;;10.16;84.83
60611;BME280;46439;51.164;13.572;2023-03-13T08:04:14;98780.36;;;10.16;85.05
60611;BME280;46439;51.164;13.572;2023-03-13T08:06:43;98780.99;;;10.17;84.96
60611;BME280;46439;51.164;13.572;2023-03-13T08:09:11;98780.83;;;10.17;84.96
60611;BME280;46439;51.164;13.572;2023-03-13T08:11:40;98778.96;;;10.17;84.98
60611;BME280;46439;51.164;13.572;2023-03-13T08:14:11;98780.83;;;10.16;85.05
60611;BME280;46439;51.164;13.572;2023-03-13T08:16:40;98778.77;;;10.15;84.85
60611;BME280;46439;51.164;13.572;2023-03-13T08:19:08;98782.03;;;10.17;84.86
60611;BME280;46439;51.164;13.572;2023-03-13T08:21:38;98795.90;;;10.19;85.06
60611;BME280;46439;51.164;13.572;2023-03-13T08:24:08;98796.89;;;10.23;85.24
60611;BME280;46439;51.164;13.572;2023-03-13T08:26:39;98794.78;;;10.25;85.24
60611;BME280;46439;51.164;13.572;2023-03-13T08:29:10;98789.10;;;10.26;85.34
60611;BME280;46439;51.164;13.572;2023-03-13T08:31:43;98788.98;;;10.27;85.38
60611;BME280;46439;51.164;13.572;2023-03-13T08:34:13;98782.38;;;10.29;85.41
60611;BME280;46439;51.164;13.572;2023-03-13T08:36:43;98777.39;;;10.32;85.32
60611;BME280;46439;51.164;13.572;2023-03-13T08:39:13;98769.77;;;10.34;85.31
60611;BME280;46439;51.164;13.572;2023-03-13T08:41:42;98761.17;;;10.39;85.45
60611;BME280;46439;51.164;13.572;2023-03-13T08:44:13;98749.31;;;10.43;85.58
60611;BME280;46439;51.164;13.572;2023-03-13T08:46:43;98753.36;;;10.50;85.75
60611;BME280;46439;51.164;13.572;2023-03-13T08:49:11;98755.61;;;10.56;85.64
60611;BME280;46439;51.164;13.572;2023-03-13T08:51:40;98751.34;;;10.61;85.89
60611;BME280;46439;51.164;13.572;2023-03-13T08:54:10;98747.59;;;10.65;85.86
60611;BME280;46439;51.164;13.572;2023-03-13T08:56:38;98747.84;;;10.70;85.74
60611;BME280;46439;51.164;13.572;2023-03-13T08:59:08;98737.66;;;10.76;85.98
60611;BME280;46439;51.164;13.572;2023-03-13T09:01:37;98736.48;;;10.81;85.93
60611;BME280;46439;51.164;13.572;2023-03-13T09:04:06;98737.90;;;10.85;86.09
60611;BME280;46439;51.164;13.572;2023-03-13T09:06:36;98743.98;;;10.89;86.04
60611;BME280;46439;51.164;13.572;2023-03-13T09:09:06;98745.36;;;10.92;86.22
60611;BME280;46439;51.164;13.572;2023-03-13T09:11:36;98746.10;;;10.94;86.12
60611;BME280;46439;51.164;13.572;2023-03-13T09:14:07;98740.23;;;10.98;85.97
60611;BME280;46439;51.164;13.572;2023-03-13T09:16:37;98739.32;;;11.02;86.44
60611;BME280;46439;51.164;13.572;2023-03-13T09:19:06;98740.80;;;11.07;86.46
60611;BME280;46439;51.164;13.572;2023-03-13T09:21:35;98744.33;;;11.12;86.47
60611;BME280;46439;51.164;13.572;2023-03-13T09:24:05;98749.78;;;11.16;86.62
60611;BME280;46439;51.164;13.572;2023-03-13T09:26:33;98745.55;;;11.18;86.65
60611;BME280;46439;51.164;13.572;2023-03-13T09:29:02;98748.36;;;11.19;86.34
60611;BME280;46439;51.164;13.572;2023-03-13T09:31:31;98742.52;;;11.18;86.37
60611;BME280;46439;51.164;13.572;2023-03-13T09:34:00;98739.86;;;11.18;86.37
60611;BME280;46439;51.164;13.572;2023-03-13T09:36:34;98740.14;;;11.19;86.46
60611;BME280;46439;51.164;13.572;2023-03-13T09:39:06;98726.13;;;11.19;86.42
60611;BME280;46439;51.164;13.572;2023-03-13T09:41:39;98717.34;;;11.18;86.27
60611;BME280;46439;51.164;13.572;2023-03-13T09:44:15;98716.96;;;11.16;86.26
60611;BME280;46439;51.164;13.572;2023-03-13T09:46:53;98711.73;;;11.16;86.30
60611;BME280;46439;51.164;13.572;2023-03-13T09:49:30;98716.38;;;11.19;86.35
60611;BME280;46439;51.164;13.572;2023-03-13T09:52:09;98715.52;;;11.22;86.46
60611;BME280;46439;51.164;13.572;2023-03-13T09:54:44;98708.74;;;11.25;86.43
60611;BME280;46439;51.164;13.572;2023-03-13T09:57:19;98700.87;;;11.28;86.65
60611;BME280;46439;51.164;13.572;2023-03-13T09:59:54;98700.19;;;11.32;86.75
60611;BME280;46439;51.164;13.572;2023-03-13T10:02:31;98707.10;;;11.38;86.76
60611;BME280;46439;51.164;13.572;2023-03-13T10:05:07;98707.59;;;11.44;86.84
60611;BME280;46439;51.164;13.572;2023-03-13T10:07:38;98707.22;;;11.49;86.75
60611;BME280;46439;51.164;13.572;2023-03-13T10:10:13;98713.56;;;11.54;86.83
60611;BME280;46439;51.164;13.572;2023-03-13T10:12:45;98710.13;;;11.59;86.91
60611;BME280;46439;51.164;13.572;2023-03-13T10:15:35;98710.17;;;11.64;87.05
60611;BME280;46439;51.164;13.572;2023-03-13T10:18:13;98712.03;;;11.70;87.15
60611;BME280;46439;51.164;13.572;2023-03-13T10:20:44;98699.76;;;11.77;87.25
60611;BME280;46439;51.164;13.572;2023-03-13T10:23:17;98697.14;;;11.84;87.45
60611;BME280;46439;51.164;13.572;2023-03-13T10:25:47;98687.87;;;11.92;87.32
60611;BME280;46439;51.164;13.572;2023-03-13T10:28:16;98679.38;;;12.00;87.55
60611;BME280;46439;51.164;13.572;2023-03-13T10:30:52;98682.78;;;12.06;87.58
60611;BME280;46439;51.164;13.572;2023-03-13T10:33:24;98675.59;;;12.11;87.65
60611;BME280;46439;51.164;13.572;2023-03-13T10:36:09;98679.00;;;12.16;87.62
60611;BME280;46439;51.164;13.572;2023-03-13T10:38:49;98681.08;;;12.22;87.67
60611;BME280;46439;51.164;13.572;2023-03-13T10:41:29;98688.40;;;12.27;87.69
60611;BME280;46439;51.164;13.572;2023-03-13T10:44:02;98694.17;;;12.34;87.91
60611;BME280;46439;51.164;13.572;2023-03-13T10:46:32;98683.55;;;12.40;87.88
60611;BME280;46439;51.164;13.572;2023-03-13T10:49:03;98689.62;;;12.45;88.02
60611;BME280;46439;51.164;13.572;2023-03-13T10:51:36;98695.48;;;12.52;88.06
60611;BME280;46439;51.164;13.572;2023-03-13T10:54:18;98695.33;;;12.60;88.09
60611;BME280;46439;51.164;13.572;2023-03-13T10:56:49;98702.65;;;12.65;88.15
60611;BME280;46439;51.164;13.572;2023-03-13T10:59:25;98706.67;;;12.71;88.16
60611;BME280;46439;51.164;13.572;2023-03-13T11:01:59;98714.78;;;12.76;88.22
60611;BME280;46439;51.164;13.572;2023-03-13T11:04:33;98718.16;;;12.80;88.27
60611;BME280;46439;51.164;13.572;2023-03-13T11:07:12;98715.08;;;12.84;88.24
60611;BME280;46439;51.164;13.572;2023-03-13T11:09:42;98712.02;;;12.86;88.21
60611;BME280;46439;51.164;13.572;2023-03-13T11:12:16;98718.15;;;12.88;88.16
60611;BME280;46439;51.164;13.572;2023-03-13T11:14:47;98718.74;;;12.92;88.19
60611;BME280;46439;51.164;13.572;2023-03-13T11:17:26;98724.89;;;12.95;88.30
60611;BME280;46439;51.164;13.572;2023-03-13T11:20:05;98724.85;;;12.99;88.26
60611;BME280;46439;51.164;13.572;2023-03-13T11:22:52;98716.44;;;13.02;88.35
60611;BME280;46439;51.164;13.572;2023-03-13T11:25:24;98719.27;;;13.04;88.43
60611;BME280;46439;51.164;13.572;2023-03-13T11:28:19;98710.88;;;13.08;88.32
60611;BME280;46439;51.164;13.572;2023-03-13T11:31:04;98704.23;;;13.10;88.37
60611;BME280;46439;51.164;13.572;2023-03-13T11:33:41;98702.66;;;13.11;88.28
60611;BME280;46439;51.164;13.572;2023-03-13T11:36:24;98699.14;;;13.13;88.27
60611;BME280;46439;51.164;13.572;2023-03-13T11:39:05;98701.17;;;13.15;88.31
60611;BME280;46439;51.164;13.572;2023-03-13T11:41:55;98696.06;;;13.16;88.27
60611;BME280;46439;51.164;13.572;2023-03-13T11:44:33;98685.48;;;13.17;88.24
60611;BME280;46439;51.164;13.572;2023-03-13T11:47:24;98685.35;;;13.19;88.27
60611;BME280;46439;51.164;13.572;2023-03-13T11:50:14;98680.65;;;13.21;88.30
60611;BME280;46439;51.164;13.572;2023-03-13T11:52:57;98677.91;;;13.24;88.31
60611;BME280;46439;51.164;13.572;2023-03-13T11:55:38;98669.08;;;13.26;88.36
60611;BME280;46439;51.164;13.572;2023-03-13T12:01:05;98657.60;;;13.31;88.32
60611;BME280;46439;51.164;13.572;2023-03-13T12:03:41;98654.73;;;13.32;88.30
60611;BME280;46439;51.164;13.572;2023-03-13T12:06:19;98655.52;;;13.33;88.16
60611;BME280;46439;51.164;13.572;2023-03-13T12:08:54;98649.46;;;13.37;88.39
60611;BME280;46439;51.164;13.572;2023-03-13T12:11:27;98638.10;;;13.42;88.46
60611;BME280;46439;51.164;13.572;2023-03-13T12:14:00;98632.89;;;13.45;88.58
60611;BME280;46439;51.164;13.572;2023-03-13T12:16:39;98617.98;;;13.52;88.60
60611;BME280;46439;51.164;13.572;2023-03-13T12:19:13;98599.02;;;13.59;88.67
60611;BME280;46439;51.164;13.572;2023-03-13T12:21:46;98581.48;;;13.66;88.74
60611;BME280;46439;51.164;13.572;2023-03-13T12:24:24;98584.81;;;13.74;88.70
60611;BME280;46439;51.164;13.572;2023-03-13T12:26:57;98592.83;;;13.82;88.94
60611;BME280;46439;51.164;13.572;2023-03-13T12:29:38;98593.95;;;13.93;88.98
60611;BME280;46439;51.164;13.572;2023-03-13T12:32:13;98589.11;;;14.05;89.16
60611;BME280;46439;51.164;13.572;2023-03-13T12:34:50;98584.84;;;14.16;89.21
60611;BME280;46439;51.164;13.572;2023-03-13T12:37:27;98576.52;;;14.24;89.27
60611;BME280;46439;51.164;13.572;2023-03-13T12:40:03;98573.48;;;14.32;89.41
60611;BME280;46439;51.164;13.572;2023-03-13T12:42:48;98568.97;;;14.39;89.42
60611;BME280;46439;51.164;13.572;2023-03-13T12:45:20;98566.52;;;14.44;89.30
60611;BME280;46439;51.164;13.572;2023-03-13T12:48:08;98563.70;;;14.49;89.25
60611;BME280;46439;51.164;13.572;2023-03-13T12:50:55;98565.30;;;14.55;89.28
60611;BME280;46439;51.164;13.572;2023-03-13T12:53:52;98572.90;;;14.60;89.31
60611;BME280;46439;51.164;13.572;2023-03-13T12:56:45;98574.92;;;14.67;89.32
60611;BME280;46439;51.164;13.572;2023-03-13T12:59:18;98582.11;;;14.76;89.36
60611;BME280;46439;51.164;13.572;2023-03-13T13:01:51;98576.64;;;14.84;89.48
60611;BME280;46439;51.164;13.572;2023-03-13T13:04:20;98575.65;;;14.92;89.61
60611;BME280;46439;51.164;13.572;2023-03-13T13:06:57;98570.58;;;14.96;89.58
60611;BME280;46439;51.164;13.572;2023-03-13T13:09:30;98568.70;;;15.04;89.64
60611;BME280;46439;51.164;13.572;2023-03-13T13:12:01;98562.10;;;15.13;89.71
60611;BME280;46439;51.164;13.572;2023-03-13T13:14:55;98556.68;;;15.20;89.81
60611;BME280;46439;51.164;13.572;2023-03-13T13:20:31;98559.75;;;15.33;89.79
60611;BME280;46439;51.164;13.572;2023-03-13T13:23:27;98552.64;;;15.39;89.66
60611;BME280;46439;51.164;13.572;2023-03-13T13:32:15;98502.00;;;15.58;89.80
60611;BME280;46439;51.164;13.572;2023-03-13T13:35:02;98502.27;;;15.62;89.75